Montpelier, Kentucky
Current Conditions -  °F | °C
As of 6:56 AM on Thursday 23 Oct 2014 (Local Time) from KEKQ Reporting Station
Overcast Overcast  
Wind Chill: 46°   Ceiling: 2600
Heat Index: 46°   Visibility: 10mi
Dew Point: 42°   Wind: 0mph
Humidity: 86%   Direction: NA
Pressure: 30.25"   Gusts: NA
Location:  37.112°N, 85.2724°W
Report Text: KEKQ 231156Z AUTO 00000KT 10SM OVC026 08/06 A3025 RMK AO2 50004 T00770055 10077 20022 SLP251
Loading
Personal Weather Stations






























Interactive Weather Map
Tropical Storm Tracking
New forecast layout! Learn more

10-Day Weather Forecast

Advertisements
Track Severe Weather on mobile